Kearney, NE

2:16 AM CDT on April 30, 2017 (GMT -0500)
Kearney Municipal

Weather History for KEAR - February, 2013

Change the Weather History Date:

Wednesday, February 27, 2013

  Actual Average Record
Temperature  
Mean Temperature 29 °F 32 °F  
Max Temperature 37 °F 43 °F 75 °F (2006)
Min Temperature 21 °F 20 °F -9 °F (1962)
Degree Days  
Heating Degree Days 36 33  
Month to date heating degree days 999  
Cooling Degree Days 0 0  
Month to date cooling degree days 0  
Moisture  
Dew Point 23 °F    
Average Humidity 78    
Maximum Humidity 92    
Minimum Humidity 63    
Precipitation  
Precipitation 0.00 in - 1.05 in (1958)
Sea Level Pressure  
Sea Level Pressure 30.07 in    
Wind  
Wind Speed 17 mph (NNW)    
Max Wind Speed 27 mph    
Max Gust Speed 32 mph    
Visibility 10 miles    
Events      
T = Trace of Precipitation, MM = Missing Value Source: NWS Daily Summary

Daily Weather History Graph

Daily Weather History Graph

Search for Another Location

Airport or City:

Trip Planner

Search our weather history database for the weather conditions in past years. The results will help you decide how hot, cold, wet, or windy it might be!

Date:

Astronomy

Feb. 27, 2013 Rise Set
Actual Time 7:12 AM CST 6:25 PM CST
Civil Twilight 6:45 AM CST 6:52 PM CST
Nautical Twilight 6:13 AM CST 7:24 PM CST
Astronomical Twilight 5:41 AM CST 7:56 PM CST
Moon 8:49 PM CST (2/27) 7:47 AM CST (2/27)
Length of Visible Light 12h 07m
Length of Day
11h 12m
Waning Gibbous, 96% of the Moon is Illuminated
Feb 27
Waning Gibbous
Mar 4
Last Quarter
Mar 11
New
Mar 19
First Quarter
Mar 27
Full

Hourly Weather History & Observations

Time (CST) Temp. Windchill Dew Point Humidity Pressure Visibility Wind Dir Wind Speed Gust Speed Precip Events Conditions
12:15 AM 24.8 °F 14.0 °F 21.2 °F 86% 29.95 in 10.0 mi North 11.5 mph - N/A   Mostly Cloudy
12:35 AM 23.0 °F 10.6 °F 19.4 °F 86% 29.95 in 10.0 mi North 13.8 mph - N/A   Scattered Clouds
12:55 AM 23.0 °F 12.4 °F 19.4 °F 86% 29.95 in 10.0 mi North 10.4 mph - N/A   Mostly Cloudy
1:15 AM 23.0 °F 13.1 °F 19.4 °F 86% 29.95 in 10.0 mi North 9.2 mph - N/A   Mostly Cloudy
1:35 AM 21.2 °F 12.6 °F 19.4 °F 93% 29.95 in 10.0 mi NNW 6.9 mph - N/A   Overcast
1:55 AM 21.2 °F 10.9 °F 19.4 °F 93% 29.95 in 10.0 mi NNW 9.2 mph - N/A   Mostly Cloudy
2:15 AM 23.0 °F 11.7 °F 19.4 °F 86% 29.96 in 10.0 mi North 11.5 mph - N/A   Partly Cloudy
2:35 AM 23.0 °F 10.6 °F 19.4 °F 86% 29.96 in 10.0 mi NNW 13.8 mph - N/A   Mostly Cloudy
2:55 AM 23.0 °F 11.7 °F 19.4 °F 86% 29.96 in 10.0 mi NNW 11.5 mph - N/A   Mostly Cloudy
3:15 AM 23.0 °F 10.6 °F 19.4 °F 86% 29.96 in 10.0 mi NNW 13.8 mph - N/A   Overcast
3:35 AM 23.0 °F 9.2 °F 19.4 °F 86% 29.95 in 10.0 mi NNW 17.3 mph - N/A   Overcast
3:55 AM 23.0 °F 9.6 °F 19.4 °F 86% 29.95 in 10.0 mi NNW 16.1 mph - N/A   Mostly Cloudy
4:15 AM 24.8 °F 12.4 °F 19.4 °F 80% 29.96 in 10.0 mi NNW 15.0 mph 19.6 mph N/A   Overcast
4:35 AM 24.8 °F 12.9 °F 19.4 °F 80% 29.96 in 10.0 mi NNW 13.8 mph - N/A   Overcast
4:55 AM 24.8 °F 11.9 °F 19.4 °F 80% 29.96 in 10.0 mi NNW 16.1 mph - N/A   Mostly Cloudy
5:15 AM 24.8 °F 12.4 °F 19.4 °F 80% 29.97 in 10.0 mi NNW 15.0 mph - N/A   Mostly Cloudy
5:35 AM 24.8 °F 12.4 °F 19.4 °F 80% 29.97 in 10.0 mi NNW 15.0 mph - N/A   Scattered Clouds
5:55 AM 24.8 °F 12.4 °F 19.4 °F 80% 29.98 in 10.0 mi NW 15.0 mph - N/A   Mostly Cloudy
6:15 AM 24.8 °F 12.4 °F 17.6 °F 74% 29.98 in 10.0 mi NW 15.0 mph 21.9 mph N/A   Mostly Cloudy
6:35 AM 26.6 °F 13.8 °F 17.6 °F 69% 29.99 in 10.0 mi NNW 17.3 mph - N/A   Mostly Cloudy
6:55 AM 26.6 °F 13.1 °F 17.6 °F 69% 30.00 in 10.0 mi NNW 19.6 mph 25.3 mph N/A   Partly Cloudy
7:15 AM 24.8 °F 11.9 °F 19.4 °F 80% 30.01 in 10.0 mi NNW 16.1 mph - N/A   Clear
7:35 AM 24.8 °F 12.4 °F 17.6 °F 74% 30.03 in 10.0 mi NNW 15.0 mph - N/A   Clear
7:55 AM 26.6 °F 14.3 °F 19.4 °F 74% 30.04 in 10.0 mi NNW 16.1 mph - N/A   Clear
8:15 AM 26.6 °F 13.8 °F 19.4 °F 74% 30.05 in 10.0 mi NNW 17.3 mph - N/A   Clear
8:35 AM 26.6 °F 13.4 °F 19.4 °F 74% 30.05 in 10.0 mi NNW 18.4 mph - N/A   Clear
8:55 AM 26.6 °F 12.7 °F 19.4 °F 74% 30.06 in 10.0 mi NNW 20.7 mph - N/A   Clear
9:15 AM 28.4 °F 14.7 °F 19.4 °F 69% 30.07 in 10.0 mi NNW 21.9 mph 28.8 mph N/A   Clear
9:35 AM 28.4 °F 15.4 °F 21.2 °F 74% 30.08 in 10.0 mi NNW 19.6 mph 24.2 mph N/A   Clear
9:55 AM 28.4 °F 15.4 °F 21.2 °F 74% 30.09 in 10.0 mi NNW 19.6 mph - N/A   Clear
10:15 AM 30.2 °F 17.4 °F 21.2 °F 69% 30.09 in 10.0 mi NNW 20.7 mph - N/A   Clear
10:35 AM 30.2 °F 17.4 °F 21.2 °F 69% 30.10 in 10.0 mi NNW 20.7 mph - N/A   Clear
10:55 AM 32.0 °F 20.1 °F 21.2 °F 64% 30.11 in 10.0 mi NNW 19.6 mph 27.6 mph N/A   Clear
11:15 AM 33.8 °F 22.5 °F 23.0 °F 65% 30.11 in 10.0 mi NNW 19.6 mph 25.3 mph N/A   Clear
11:35 AM 33.8 °F 22.2 °F 26.6 °F 75% 30.10 in 10.0 mi NNW 20.7 mph 33.4 mph N/A   Clear
11:55 AM 33.8 °F 20.8 °F 26.6 °F 75% 30.11 in 10.0 mi NNW 26.5 mph 29.9 mph N/A   Scattered Clouds
12:15 PM 35.6 °F 23.7 °F 26.6 °F 70% 30.12 in 10.0 mi NNW 24.2 mph 31.1 mph N/A   Mostly Cloudy
12:35 PM 35.6 °F 24.0 °F 26.6 °F 70% 30.12 in 10.0 mi NNW 23.0 mph 28.8 mph N/A   Mostly Cloudy
12:55 PM 35.6 °F 24.0 °F 26.6 °F 70% 30.12 in 10.0 mi NNW 23.0 mph 32.2 mph N/A   Overcast
1:15 PM 35.6 °F 23.7 °F 24.8 °F 65% 30.12 in 10.0 mi NNW 24.2 mph 28.8 mph N/A   Overcast
1:35 PM 35.6 °F 24.5 °F 24.8 °F 65% 30.12 in 10.0 mi NNW 20.7 mph 26.5 mph N/A   Mostly Cloudy
1:55 PM 35.6 °F 24.5 °F 24.8 °F 65% 30.12 in 10.0 mi North 20.7 mph 26.5 mph N/A   Scattered Clouds
2:15 PM 35.6 °F 24.8 °F 26.6 °F 70% 30.11 in 10.0 mi NNW 19.6 mph 25.3 mph N/A   Scattered Clouds
2:35 PM 35.6 °F 25.5 °F 24.8 °F 65% 30.12 in 10.0 mi NNW 17.3 mph 21.9 mph N/A   Mostly Cloudy
2:55 PM 35.6 °F 24.5 °F 24.8 °F 65% 30.12 in 10.0 mi NNW 20.7 mph - N/A   Mostly Cloudy
3:15 PM 35.6 °F 24.0 °F 24.8 °F 65% 30.12 in 10.0 mi NNW 23.0 mph - N/A   Mostly Cloudy
3:35 PM 35.6 °F 24.5 °F 24.8 °F 65% 30.12 in 10.0 mi NNW 20.7 mph 28.8 mph N/A   Mostly Cloudy
3:55 PM 35.6 °F 24.5 °F 24.8 °F 65% 30.12 in 10.0 mi NNW 20.7 mph 25.3 mph N/A   Mostly Cloudy
4:15 PM 35.6 °F 24.8 °F 24.8 °F 65% 30.13 in 10.0 mi NNW 19.6 mph - N/A   Mostly Cloudy
4:35 PM 35.6 °F 24.8 °F 26.6 °F 70% 30.13 in 10.0 mi NNW 19.6 mph 24.2 mph N/A   Overcast
4:55 PM 35.6 °F 25.2 °F 26.6 °F 70% 30.13 in 10.0 mi NNW 18.4 mph - N/A   Overcast
5:15 PM 33.8 °F 23.2 °F 26.6 °F 75% 30.13 in 10.0 mi NNW 17.3 mph - N/A   Overcast
5:35 PM 33.8 °F 24.3 °F 26.6 °F 75% 30.14 in 10.0 mi NNW 13.8 mph - N/A   Overcast
5:55 PM 33.8 °F 23.5 °F 24.8 °F 70% 30.14 in 10.0 mi NNW 16.1 mph - N/A   Overcast
6:15 PM 33.8 °F 24.3 °F 26.6 °F 75% 30.14 in 10.0 mi NW 13.8 mph - N/A   Overcast
6:35 PM 33.8 °F 23.9 °F 26.6 °F 75% 30.14 in 10.0 mi NW 15.0 mph - N/A   Overcast
6:55 PM 33.8 °F 24.8 °F 26.6 °F 75% 30.14 in 10.0 mi NW 12.7 mph - N/A   Overcast
7:15 PM 32.0 °F 22.1 °F 24.8 °F 75% 30.15 in 10.0 mi NW 13.8 mph 20.7 mph N/A   Mostly Cloudy
7:35 PM 32.0 °F 22.1 °F 26.6 °F 80% 30.15 in 10.0 mi NW 13.8 mph - N/A   Mostly Cloudy
7:55 PM 32.0 °F 22.1 °F 24.8 °F 75% 30.15 in 10.0 mi NW 13.8 mph 18.4 mph N/A   Overcast
8:15 PM 32.0 °F 21.6 °F 24.8 °F 75% 30.15 in 10.0 mi NW 15.0 mph 20.7 mph N/A   Overcast
8:35 PM 32.0 °F 22.1 °F 24.8 °F 75% 30.16 in 10.0 mi NW 13.8 mph - N/A   Overcast
8:55 PM 32.0 °F 21.2 °F 24.8 °F 75% 30.16 in 10.0 mi NW 16.1 mph 20.7 mph N/A   Overcast
9:15 PM 32.0 °F 21.2 °F 24.8 °F 75% 30.16 in 10.0 mi NW 16.1 mph 23.0 mph N/A   Overcast
9:35 PM 30.2 °F 18.5 °F 23.0 °F 75% 30.16 in 10.0 mi NNW 17.3 mph 21.9 mph N/A   Mostly Cloudy
9:55 PM 30.2 °F 19.3 °F 23.0 °F 75% 30.15 in 10.0 mi NNW 15.0 mph 20.7 mph N/A   Partly Cloudy
10:15 PM 28.4 °F 17.5 °F 23.0 °F 80% 30.16 in 10.0 mi NNW 13.8 mph - N/A   Clear
10:35 PM 28.4 °F 19.1 °F 23.0 °F 80% 30.16 in 10.0 mi NW 10.4 mph - N/A   Partly Cloudy
10:55 PM 28.4 °F 18.5 °F 24.8 °F 86% 30.15 in 10.0 mi NW 11.5 mph - N/A   Mostly Cloudy
11:15 PM 28.4 °F 19.7 °F 24.8 °F 86% 30.15 in 10.0 mi NW 9.2 mph - N/A   Overcast
11:35 PM 28.4 °F 19.1 °F 24.8 °F 86% 30.15 in 10.0 mi NNW 10.4 mph - N/A   Overcast
11:55 PM 30.2 °F 19.3 °F 24.8 °F 80% 30.15 in 10.0 mi NNW 15.0 mph - N/A   Overcast